createdAt,value
2019-05-06T00:00:35.971Z,0.00
2019-05-06T00:02:21.702Z,0.00
2019-05-06T00:03:29.335Z,0.00
2019-05-06T00:05:17.155Z,0.00
2019-05-06T00:06:16.114Z,0.00
2019-05-06T00:08:09.516Z,0.00
2019-05-06T00:09:09.461Z,0.00
2019-05-06T00:11:04.764Z,0.00
2019-05-06T00:12:04.018Z,0.00
2019-05-06T00:13:04.602Z,0.00
2019-05-06T00:14:03.918Z,0.00
2019-05-06T00:15:03.965Z,0.00
2019-05-06T00:16:03.940Z,0.00
2019-05-06T00:17:03.904Z,0.00
2019-05-06T00:18:04.454Z,0.00
2019-05-06T00:19:04.900Z,0.00
2019-05-06T00:20:04.263Z,0.00
2019-05-06T00:21:04.649Z,0.00
2019-05-06T00:22:04.712Z,0.00
2019-05-06T00:23:04.199Z,0.00
2019-05-06T00:24:03.921Z,0.00
2019-05-06T00:25:05.238Z,0.00
2019-05-06T00:26:04.003Z,0.00
2019-05-06T00:27:11.526Z,0.00
2019-05-06T00:28:56.223Z,0.00
2019-05-06T00:29:56.170Z,0.00
2019-05-06T00:31:49.690Z,0.00
2019-05-06T00:32:49.639Z,0.00
2019-05-06T00:34:44.517Z,0.00
2019-05-06T00:35:45.008Z,0.00
2019-05-06T00:36:44.494Z,0.00
2019-05-06T00:37:53.606Z,0.00
2019-05-06T00:39:45.763Z,0.00
2019-05-06T00:40:45.599Z,0.00
2019-05-06T00:42:39.014Z,0.00
2019-05-06T00:43:39.006Z,0.00
2019-05-06T00:45:34.142Z,0.00
2019-05-06T00:46:34.264Z,0.00
2019-05-06T00:48:18.193Z,0.00
2019-05-06T00:49:25.842Z,0.00
2019-05-06T00:51:19.337Z,0.00
2019-05-06T00:52:23.931Z,0.00
2019-05-06T00:54:14.334Z,0.00
2019-05-06T00:55:13.745Z,0.00
2019-05-06T00:57:06.081Z,0.00
2019-05-06T00:57:58.319Z,0.00
2019-05-06T00:59:53.957Z,0.00
2019-05-06T01:00:53.768Z,0.00
2019-05-06T01:02:47.320Z,0.00
2019-05-06T01:03:47.260Z,0.00
2019-05-06T01:05:44.279Z,0.00
2019-05-06T01:06:44.089Z,0.00
2019-05-06T01:08:37.725Z,0.00
2019-05-06T01:09:36.146Z,0.00
2019-05-06T01:10:44.950Z,0.00
2019-05-06T01:12:29.146Z,0.00
2019-05-06T01:13:29.076Z,0.00
2019-05-06T01:15:31.537Z,0.00
2019-05-06T01:16:31.787Z,0.00
2019-05-06T01:18:21.452Z,0.00
2019-05-06T01:19:16.383Z,0.00
2019-05-06T01:21:19.325Z,0.00
2019-05-06T01:22:09.722Z,0.00
2019-05-06T01:24:04.237Z,0.00
2019-05-06T01:25:03.967Z,0.00
2019-05-06T01:27:00.060Z,0.00
2019-05-06T01:28:04.375Z,0.00
2019-05-06T01:29:49.913Z,0.00
2019-05-06T01:30:49.864Z,0.00
2019-05-06T01:32:43.666Z,0.00
2019-05-06T01:33:45.171Z,0.00
2019-05-06T01:35:36.630Z,0.00
2019-05-06T01:36:36.588Z,0.00
2019-05-06T01:37:36.574Z,0.00
2019-05-06T01:38:36.602Z,0.00
2019-05-06T01:39:36.558Z,0.00
2019-05-06T01:40:36.543Z,0.00
2019-05-06T01:41:37.539Z,0.00
2019-05-06T01:42:36.523Z,0.00
2019-05-06T01:43:38.508Z,0.00
2019-05-06T01:44:36.504Z,0.00
2019-05-06T01:45:36.490Z,0.00
2019-05-06T01:46:36.480Z,0.00
2019-05-06T01:47:36.479Z,0.00
2019-05-06T01:48:38.591Z,0.00
2019-05-06T01:49:36.451Z,0.00
2019-05-06T01:51:29.827Z,0.00
2019-05-06T01:52:29.775Z,0.00
2019-05-06T01:54:24.909Z,0.00
2019-05-06T01:55:23.963Z,0.00
2019-05-06T01:57:18.792Z,0.00
2019-05-06T01:58:18.744Z,0.00
2019-05-06T02:00:13.951Z,0.00
2019-05-06T02:01:14.573Z,0.00
2019-05-06T02:02:14.135Z,0.00
2019-05-06T02:03:12.150Z,0.00
2019-05-06T02:04:13.844Z,0.00
2019-05-06T02:05:13.802Z,0.00
2019-05-06T02:06:14.147Z,0.00
2019-05-06T02:07:14.299Z,0.00
2019-05-06T02:08:13.516Z,0.00
2019-05-06T02:09:13.729Z,0.00
2019-05-06T02:10:14.036Z,0.00
2019-05-06T02:11:12.052Z,0.00
2019-05-06T02:12:13.794Z,0.00
2019-05-06T02:13:14.131Z,0.00
2019-05-06T02:14:13.892Z,0.00
2019-05-06T02:15:12.008Z,0.00
2019-05-06T02:16:14.322Z,0.00
2019-05-06T02:17:14.229Z,0.00
2019-05-06T02:18:13.535Z,0.00
2019-05-06T02:19:11.966Z,0.00
2019-05-06T02:20:13.773Z,0.00
2019-05-06T02:21:13.764Z,0.00
2019-05-06T02:22:13.657Z,0.00
2019-05-06T02:24:05.441Z,0.00
2019-05-06T02:25:05.391Z,0.00
2019-05-06T02:26:58.869Z,0.00
2019-05-06T02:27:58.767Z,0.00
2019-05-06T02:28:58.760Z,0.00
2019-05-06T02:29:58.756Z,0.00
2019-05-06T02:30:58.775Z,0.00
2019-05-06T02:32:15.755Z,0.00
2019-05-06T02:32:58.723Z,0.00
2019-05-06T02:33:58.710Z,0.00
2019-05-06T02:34:58.699Z,0.00
2019-05-06T02:35:58.686Z,0.00
2019-05-06T02:36:58.678Z,0.00
2019-05-06T02:37:58.672Z,0.00
2019-05-06T02:38:59.605Z,0.00
2019-05-06T02:39:58.643Z,0.00
2019-05-06T02:40:58.714Z,0.00
2019-05-06T02:41:58.642Z,0.00
2019-05-06T02:42:58.608Z,0.00
2019-05-06T02:43:58.597Z,0.00
2019-05-06T02:44:58.594Z,0.00
2019-05-06T02:45:58.579Z,0.00
2019-05-06T02:46:58.565Z,0.00
2019-05-06T02:47:58.556Z,0.00
2019-05-06T02:48:58.543Z,0.00
2019-05-06T02:49:58.532Z,0.00
2019-05-06T02:50:58.529Z,0.00
2019-05-06T02:51:58.517Z,0.00
2019-05-06T02:52:58.504Z,0.00
2019-05-06T02:53:58.498Z,0.00
2019-05-06T02:54:58.485Z,0.00
2019-05-06T02:55:58.467Z,0.00
2019-05-06T02:56:58.469Z,0.00
2019-05-06T02:57:58.450Z,0.00
2019-05-06T02:58:58.440Z,0.00
2019-05-06T02:59:58.428Z,0.00
2019-05-06T03:00:58.411Z,0.00
2019-05-06T03:01:58.408Z,0.00
2019-05-06T03:02:58.397Z,0.00
2019-05-06T03:03:58.381Z,0.00
2019-05-06T03:04:58.386Z,0.00
2019-05-06T03:05:58.363Z,0.00
2019-05-06T03:06:58.352Z,0.00
2019-05-06T03:07:58.340Z,0.00
2019-05-06T03:08:58.332Z,0.00
2019-05-06T03:09:58.327Z,0.00
2019-05-06T03:10:58.311Z,0.00
2019-05-06T03:11:58.301Z,0.00
2019-05-06T03:12:58.284Z,0.00
2019-05-06T03:13:58.269Z,0.00
2019-05-06T03:14:58.277Z,0.00
2019-05-06T03:15:58.248Z,0.00
2019-05-06T03:16:58.244Z,0.00
2019-05-06T03:17:58.232Z,0.00
2019-05-06T03:18:58.245Z,4.00
2019-05-06T03:19:58.208Z,4.00
2019-05-06T03:20:58.213Z,4.00
2019-05-06T03:21:58.190Z,0.00
2019-05-06T03:22:58.182Z,4.00
2019-05-06T03:23:58.181Z,4.00
2019-05-06T03:24:58.176Z,4.00
2019-05-06T03:25:58.149Z,4.00
2019-05-06T03:26:58.137Z,8.00
2019-05-06T03:27:58.124Z,4.00
2019-05-06T03:28:58.117Z,8.00
2019-05-06T03:30:56.547Z,8.00
2019-05-06T03:31:56.275Z,8.00
2019-05-06T03:33:23.295Z,12.00
2019-05-06T03:34:16.205Z,12.00
2019-05-06T03:35:07.888Z,16.00
2019-05-06T03:36:06.237Z,20.00
2019-05-06T03:36:56.000Z,24.00
2019-05-06T03:37:53.285Z,24.00
2019-05-06T03:38:53.640Z,32.00
2019-05-06T03:39:52.897Z,36.00
2019-05-06T03:40:53.718Z,40.00
2019-05-06T03:41:53.711Z,44.00
2019-05-06T03:42:53.897Z,52.00
2019-05-06T03:43:54.411Z,60.00
2019-05-06T03:44:53.283Z,64.00
2019-05-06T03:45:53.652Z,68.00
2019-05-06T03:46:53.890Z,80.00
2019-05-06T03:47:54.062Z,88.00
2019-05-06T03:50:06.882Z,112.00
2019-05-06T03:51:04.272Z,120.00
2019-05-06T03:52:03.804Z,136.00
2019-05-06T03:53:03.857Z,148.00
2019-05-06T03:54:03.781Z,164.00
2019-05-06T03:55:04.255Z,180.00
2019-05-06T03:56:03.756Z,192.00
2019-05-06T03:57:10.359Z,208.00
2019-05-06T03:58:04.024Z,224.00
2019-05-06T03:59:03.726Z,244.00
2019-05-06T04:00:04.950Z,268.00
2019-05-06T04:01:03.949Z,288.00
2019-05-06T04:02:05.308Z,312.00
2019-05-06T04:03:03.690Z,332.00
2019-05-06T04:04:04.000Z,356.00
2019-05-06T04:05:04.300Z,376.00
2019-05-06T04:06:13.842Z,400.00
2019-05-06T04:07:03.653Z,424.00
2019-05-06T04:08:07.370Z,444.00
2019-05-06T04:09:05.621Z,472.00
2019-05-06T04:10:04.012Z,496.00
2019-05-06T04:11:05.367Z,516.00
2019-05-06T04:12:03.788Z,544.00
2019-05-06T04:13:04.316Z,564.00
2019-05-06T04:14:06.364Z,588.00
2019-05-06T04:15:04.173Z,616.00
2019-05-06T04:16:05.351Z,636.00
2019-05-06T04:17:05.364Z,664.00
2019-05-06T04:18:03.992Z,688.00
2019-05-06T04:19:05.369Z,716.00
2019-05-06T04:20:04.163Z,736.00
2019-05-06T04:21:03.881Z,764.00
2019-05-06T04:22:05.367Z,788.00
2019-05-06T04:23:06.196Z,812.00
2019-05-06T04:24:05.356Z,836.00
2019-05-06T04:25:05.357Z,864.00
2019-05-06T04:26:05.359Z,884.00
2019-05-06T04:27:03.439Z,912.00
2019-05-06T04:28:05.375Z,944.00
2019-05-06T04:29:05.364Z,980.00
2019-05-06T04:30:04.643Z,1032.00
2019-05-06T04:31:05.364Z,1100.00
2019-05-06T04:32:04.875Z,1176.00
2019-05-06T04:33:04.857Z,1268.00
2019-05-06T04:34:12.675Z,1356.00
2019-05-06T04:35:04.917Z,1428.00
2019-05-06T04:36:13.169Z,1496.00
2019-05-06T04:37:57.859Z,1536.00
2019-05-06T04:38:56.800Z,1560.00
2019-05-06T04:40:53.529Z,1764.00
2019-05-06T04:41:53.621Z,1852.00
2019-05-06T04:43:44.267Z,1960.00
2019-05-06T04:44:46.653Z,1976.00
2019-05-06T04:45:44.208Z,2016.00
2019-05-06T04:47:45.384Z,2272.00
2019-05-06T04:48:37.662Z,2260.00
2019-05-06T04:50:38.838Z,2024.00
2019-05-06T04:51:38.716Z,1880.00
2019-05-06T04:53:27.117Z,1600.00
2019-05-06T04:54:26.548Z,1460.00
2019-05-06T04:56:17.792Z,1280.00
2019-05-06T04:57:17.772Z,1164.00
2019-05-06T04:59:13.654Z,1252.00
2019-05-06T05:00:13.043Z,1332.00
2019-05-06T05:02:04.606Z,1552.00
2019-05-06T05:03:04.591Z,1656.00
2019-05-06T05:04:57.988Z,1764.00
2019-05-06T05:05:59.965Z,1784.00
2019-05-06T05:07:53.028Z,1788.00
2019-05-06T05:08:53.166Z,1788.00
2019-05-06T05:10:46.248Z,1816.00
2019-05-06T05:11:46.202Z,1820.00
2019-05-06T05:13:39.642Z,1792.00
2019-05-06T05:14:39.621Z,1788.00
2019-05-06T05:15:41.681Z,1800.00
2019-05-06T05:16:39.634Z,1808.00
2019-05-06T05:17:39.581Z,1832.00
2019-05-06T05:18:39.583Z,1876.00
2019-05-06T05:19:39.562Z,1908.00
2019-05-06T05:20:46.322Z,1920.00
2019-05-06T05:21:39.538Z,1956.00
2019-05-06T05:22:39.530Z,2016.00
2019-05-06T05:23:39.521Z,2076.00
2019-05-06T05:24:39.513Z,2120.00
2019-05-06T05:25:39.502Z,2140.00
2019-05-06T05:26:39.491Z,2156.00
2019-05-06T05:27:39.479Z,2168.00
2019-05-06T05:28:39.472Z,2188.00
2019-05-06T05:29:39.456Z,2228.00
2019-05-06T05:30:39.452Z,2292.00
2019-05-06T05:31:48.597Z,2296.00
2019-05-06T05:33:32.998Z,2304.00
2019-05-06T05:34:39.990Z,2300.00
2019-05-06T05:36:26.326Z,2440.00
2019-05-06T05:37:26.266Z,2516.00
2019-05-06T05:39:24.747Z,2696.00
2019-05-06T05:40:22.675Z,2756.00
2019-05-06T05:42:19.104Z,2836.00
2019-05-06T05:43:16.062Z,2848.00
2019-05-06T05:45:12.713Z,2856.00
2019-05-06T05:46:12.489Z,2844.00
2019-05-06T05:48:04.063Z,2848.00
2019-05-06T05:49:04.014Z,2880.00
2019-05-06T05:50:03.984Z,2916.00
2019-05-06T05:51:03.972Z,2916.00
2019-05-06T05:52:03.966Z,2904.00
2019-05-06T05:53:03.956Z,2912.00
2019-05-06T05:54:03.949Z,2944.00
2019-05-06T05:55:04.495Z,2980.00
2019-05-06T05:56:03.919Z,3016.00
2019-05-06T05:57:03.916Z,3056.00
2019-05-06T05:58:03.898Z,3152.00
2019-05-06T05:59:03.886Z,3260.00
2019-05-06T06:00:04.158Z,3376.00
2019-05-06T06:01:04.261Z,3484.00
2019-05-06T06:02:04.107Z,3552.00
2019-05-06T06:03:06.865Z,3576.00
2019-05-06T06:04:03.831Z,3592.00
2019-05-06T06:05:03.822Z,3624.00
2019-05-06T06:06:03.815Z,3624.00
2019-05-06T06:07:03.806Z,3628.00
2019-05-06T06:08:03.797Z,3704.00
2019-05-06T06:09:03.785Z,3796.00
2019-05-06T06:10:03.775Z,3904.00
2019-05-06T06:11:04.375Z,3996.00
2019-05-06T06:12:03.756Z,4056.00
2019-05-06T06:13:03.743Z,4084.00
2019-05-06T06:14:03.754Z,4120.00
2019-05-06T06:15:03.734Z,4132.00
2019-05-06T06:16:03.715Z,4188.00
2019-05-06T06:17:03.702Z,4256.00
2019-05-06T06:18:03.697Z,4312.00
2019-05-06T06:19:03.708Z,4372.00
2019-05-06T06:20:03.670Z,4372.00
2019-05-06T06:21:16.959Z,4340.00
2019-05-06T06:22:03.647Z,4320.00
2019-05-06T06:23:03.641Z,4332.00
2019-05-06T06:24:03.631Z,4396.00
2019-05-06T06:25:04.381Z,4472.00
2019-05-06T06:26:04.016Z,4540.00
2019-05-06T06:27:03.604Z,4552.00
2019-05-06T06:28:03.591Z,4528.00
2019-05-06T06:29:03.582Z,4564.00
2019-05-06T06:30:03.571Z,4672.00
2019-05-06T06:31:03.558Z,4864.00
2019-05-06T06:32:03.556Z,5076.00
2019-05-06T06:33:03.540Z,5268.00
2019-05-06T06:34:03.535Z,5448.00
2019-05-06T06:35:10.807Z,5580.00
2019-05-06T06:36:03.513Z,5676.00
2019-05-06T06:37:56.938Z,5808.00
2019-05-06T06:38:56.899Z,5868.00
2019-05-06T06:40:53.563Z,5976.00
2019-05-06T06:41:51.892Z,6124.00
2019-05-06T06:43:43.878Z,6484.00
2019-05-06T06:44:43.742Z,6652.00
2019-05-06T06:46:37.123Z,7060.00
2019-05-06T06:47:37.079Z,7364.00
2019-05-06T06:49:43.194Z,8256.00
2019-05-06T06:50:30.428Z,8484.00
2019-05-06T06:52:23.813Z,9764.00
2019-05-06T06:53:23.772Z,10412.00
2019-05-06T06:55:18.585Z,8952.00
2019-05-06T06:56:17.124Z,9580.00
2019-05-06T06:58:11.988Z,11436.00
2019-05-06T06:59:12.671Z,12504.00
2019-05-06T07:01:13.045Z,13460.00
2019-05-06T07:02:04.681Z,13388.00
2019-05-06T07:04:35.683Z,13344.00
2019-05-06T07:05:02.399Z,13512.00
2019-05-06T07:08:34.099Z,13536.00
2019-05-06T07:09:23.835Z,14508.00
2019-05-06T08:00:32.696Z,24416.00
2019-05-06T08:01:33.234Z,24864.00
2019-05-06T08:04:56.858Z,27968.00
2019-05-06T08:05:58.825Z,27808.00
2019-05-06T08:10:56.358Z,26720.00
2019-05-06T08:11:56.429Z,26880.00
2019-05-06T08:14:15.770Z,25888.00
2019-05-06T08:14:52.175Z,25824.00
2019-05-06T08:19:48.592Z,33120.00
2019-05-06T08:20:47.543Z,34944.00
2019-05-06T08:22:47.105Z,43744.00
2019-05-06T08:23:42.837Z,35776.00
2019-05-06T08:26:09.166Z,36224.00
2019-05-06T08:26:34.386Z,36032.00
2019-05-06T08:28:48.860Z,29952.00
2019-05-06T08:29:29.302Z,32672.00
2019-05-06T08:36:11.358Z,26400.00
2019-05-06T08:37:02.385Z,25536.00
2019-05-06T08:42:15.170Z,22976.00
2019-05-06T08:42:58.891Z,22816.00
2019-05-06T08:48:02.414Z,12828.00
2019-05-06T08:48:56.628Z,73568.00
2019-05-06T08:53:54.282Z,17952.00
2019-05-06T08:54:54.242Z,73408.00
2019-05-06T08:56:56.653Z,70336.00
2019-05-06T08:57:47.645Z,68320.00
2019-05-06T09:01:13.339Z,72192.00
2019-05-06T09:02:13.704Z,73568.00
2019-05-06T09:04:12.475Z,73920.00
2019-05-06T09:05:06.626Z,75392.00
2019-05-06T09:06:07.526Z,14820.00
2019-05-06T09:07:06.636Z,11016.00
2019-05-06T09:08:06.596Z,79328.00
2019-05-06T09:09:06.575Z,75424.00
2019-05-06T09:10:06.575Z,74560.00
2019-05-06T09:11:06.578Z,73536.00
2019-05-06T09:12:06.610Z,72000.00
2019-05-06T09:13:06.580Z,74048.00
2019-05-06T09:14:09.681Z,76416.00
2019-05-06T09:15:08.496Z,77536.00
2019-05-06T09:16:09.154Z,77536.00
2019-05-06T09:17:06.589Z,76800.00
2019-05-06T09:18:06.575Z,76736.00
2019-05-06T09:19:06.573Z,76224.00
2019-05-06T09:20:06.577Z,80256.00
2019-05-06T09:21:06.590Z,86464.00
2019-05-06T09:22:06.577Z,86464.00
2019-05-06T09:23:06.583Z,87456.00
2019-05-06T09:24:06.583Z,16196.00
2019-05-06T09:25:06.590Z,16180.00
2019-05-06T09:26:06.599Z,15520.00
2019-05-06T09:27:06.585Z,18400.00
2019-05-06T09:28:06.588Z,24480.00
2019-05-06T09:29:06.590Z,92288.00
2019-05-06T09:30:06.595Z,87968.00
2019-05-06T09:34:16.956Z,82464.00
2019-05-06T09:35:12.939Z,85312.00
2019-05-06T09:37:05.413Z,84192.00
2019-05-06T09:38:04.439Z,89024.00
2019-05-06T09:41:57.819Z,81824.00
2019-05-06T09:42:32.050Z,85056.00
2019-05-06T09:47:57.822Z,89792.00
2019-05-06T09:48:28.268Z,17284.00
2019-05-06T09:51:54.404Z,84192.00
2019-05-06T09:52:53.790Z,87360.00
2019-05-06T10:01:02.476Z,83392.00
2019-05-06T10:01:56.094Z,86912.00
2019-05-06T10:03:54.307Z,80800.00
2019-05-06T10:04:49.309Z,92512.00
2019-05-06T10:08:14.731Z,95552.00
2019-05-06T10:09:16.134Z,90432.00
2019-05-06T10:11:11.741Z,91136.00
2019-05-06T10:12:08.205Z,91776.00
2019-05-06T10:17:17.075Z,90496.00
2019-05-06T10:18:07.516Z,103168.00
2019-05-06T10:19:07.461Z,105088.00
2019-05-06T10:25:06.374Z,39776.00
2019-05-06T10:25:44.020Z,39808.00
2019-05-06T10:29:35.513Z,42400.00
2019-05-06T10:30:09.411Z,46464.00
2019-05-06T10:32:12.085Z,43104.00
2019-05-06T10:33:03.679Z,52640.00
2019-05-06T10:35:35.047Z,79744.00
2019-05-06T10:35:57.738Z,45760.00
2019-05-06T10:37:53.772Z,52224.00
2019-05-06T10:38:52.882Z,49536.00
2019-05-06T10:43:57.775Z,30016.00
2019-05-06T10:44:49.580Z,28032.00
2019-05-06T10:46:52.691Z,22496.00
2019-05-06T10:47:43.535Z,19424.00
2019-05-06T10:49:59.033Z,18848.00
2019-05-06T10:50:37.188Z,79936.00
2019-05-06T10:51:36.968Z,19104.00
2019-05-06T10:52:36.970Z,17152.00
2019-05-06T10:53:37.014Z,15004.00
2019-05-06T10:54:36.979Z,12064.00
2019-05-06T10:55:36.970Z,11916.00
2019-05-06T10:56:49.786Z,12836.00
2019-05-06T10:57:36.971Z,15120.00
2019-05-06T10:58:36.968Z,68800.00
2019-05-06T10:59:36.975Z,16768.00
2019-05-06T11:00:36.983Z,19328.00
2019-05-06T11:01:36.966Z,97696.00
2019-05-06T11:02:36.966Z,53664.00
2019-05-06T11:03:36.971Z,36960.00
2019-05-06T11:04:36.962Z,59360.00
2019-05-06T11:05:36.966Z,41184.00
2019-05-06T11:06:36.959Z,50208.00
2019-05-06T11:07:36.963Z,31104.00
2019-05-06T11:08:36.969Z,29024.00
2019-05-06T11:09:36.972Z,41664.00
2019-05-06T11:10:41.099Z,36512.00
2019-05-06T11:11:38.769Z,21344.00
2019-05-06T11:12:36.961Z,16896.00
2019-05-06T11:13:36.962Z,14408.00
2019-05-06T11:14:36.981Z,12876.00
2019-05-06T11:15:36.964Z,12380.00
2019-05-06T11:16:36.955Z,13200.00
2019-05-06T11:17:36.956Z,13112.00
2019-05-06T11:18:36.950Z,14012.00
2019-05-06T11:19:36.957Z,14976.00
2019-05-06T11:20:36.952Z,13308.00
2019-05-06T11:21:36.949Z,11592.00
2019-05-06T11:22:36.952Z,10652.00
2019-05-06T11:23:36.939Z,10000.00
2019-05-06T11:24:36.947Z,9552.00
2019-05-06T11:25:37.793Z,9308.00
2019-05-06T11:26:36.943Z,9388.00
2019-05-06T11:27:39.538Z,10464.00
2019-05-06T11:28:36.933Z,12176.00
2019-05-06T11:29:36.930Z,14640.00
2019-05-06T11:30:36.929Z,16768.00
2019-05-06T11:31:36.924Z,18656.00
2019-05-06T11:32:36.924Z,38592.00
2019-05-06T11:33:36.917Z,21120.00
2019-05-06T11:34:36.916Z,22496.00
2019-05-06T11:35:36.920Z,25824.00
2019-05-06T11:36:37.669Z,33632.00
2019-05-06T11:37:46.964Z,35424.00
2019-05-06T11:38:36.916Z,76064.00
2019-05-06T11:39:36.908Z,49792.00
2019-05-06T11:40:36.908Z,20160.00
2019-05-06T11:41:36.901Z,15748.00
2019-05-06T11:42:36.899Z,12832.00
2019-05-06T11:43:36.895Z,11528.00
2019-05-06T11:44:36.895Z,11196.00
2019-05-06T11:45:36.884Z,11900.00
2019-05-06T11:46:36.882Z,12848.00
2019-05-06T11:47:36.883Z,14244.00
2019-05-06T11:48:36.876Z,17632.00
2019-05-06T11:49:36.873Z,24032.00
2019-05-06T11:50:36.874Z,24768.00
2019-05-06T11:51:36.871Z,25664.00
2019-05-06T11:52:36.876Z,40064.00
2019-05-06T11:53:36.864Z,28224.00
2019-05-06T11:54:36.860Z,26528.00
2019-05-06T11:55:38.874Z,24096.00
2019-05-06T11:56:47.917Z,21984.00
2019-05-06T11:57:36.845Z,17856.00
2019-05-06T11:58:36.854Z,15728.00
2019-05-06T11:59:36.840Z,14528.00
2019-05-06T12:00:36.840Z,13444.00
2019-05-06T12:01:36.846Z,11664.00
2019-05-06T12:02:36.833Z,9844.00
2019-05-06T12:03:36.824Z,8364.00
2019-05-06T12:04:36.821Z,7032.00
2019-05-06T12:05:36.823Z,6064.00
2019-05-06T12:06:36.818Z,5544.00
2019-05-06T12:07:36.822Z,5452.00
2019-05-06T12:08:36.811Z,5784.00
2019-05-06T12:09:36.840Z,6604.00
2019-05-06T12:10:36.798Z,7764.00
2019-05-06T12:11:36.850Z,10324.00
2019-05-06T12:12:36.796Z,13912.00
2019-05-06T12:13:38.261Z,19712.00
2019-05-06T12:14:36.785Z,36832.00
2019-05-06T12:15:36.781Z,79296.00
2019-05-06T12:16:36.837Z,56096.00
2019-05-06T12:17:36.771Z,47968.00
2019-05-06T12:18:36.771Z,92032.00
2019-05-06T12:19:36.765Z,79712.00
2019-05-06T12:20:36.759Z,61184.00
2019-05-06T12:21:36.776Z,106592.00
2019-05-06T12:22:36.766Z,104352.00
2019-05-06T12:23:36.803Z,94560.00
2019-05-06T12:24:36.739Z,95456.00
2019-05-06T12:25:36.742Z,31680.00
2019-05-06T12:26:36.739Z,99136.00
2019-05-06T12:27:36.736Z,27776.00
2019-05-06T12:28:36.734Z,26688.00
2019-05-06T12:29:38.364Z,20960.00
2019-05-06T12:30:36.723Z,20032.00
2019-05-06T12:31:36.727Z,19616.00
2019-05-06T12:32:36.723Z,21952.00
2019-05-06T12:33:36.718Z,27072.00
2019-05-06T12:34:36.714Z,36064.00
2019-05-06T12:35:36.738Z,57536.00
2019-05-06T12:36:36.708Z,44608.00
2019-05-06T12:37:36.705Z,29504.00
2019-05-06T12:38:36.708Z,40032.00
2019-05-06T12:39:36.702Z,24512.00
2019-05-06T12:40:36.698Z,20896.00
2019-05-06T12:41:36.699Z,19296.00
2019-05-06T12:42:36.695Z,20160.00
2019-05-06T12:43:36.697Z,23776.00
2019-05-06T12:44:36.686Z,28736.00
2019-05-06T12:45:36.697Z,35424.00
2019-05-06T12:46:36.692Z,38944.00
2019-05-06T12:47:36.692Z,44928.00
2019-05-06T12:48:36.676Z,96960.00
2019-05-06T12:49:36.678Z,96192.00
2019-05-06T12:50:36.670Z,58496.00
2019-05-06T12:51:36.669Z,58176.00
2019-05-06T12:52:36.666Z,91840.00
2019-05-06T12:53:36.663Z,91744.00
2019-05-06T12:54:36.664Z,92032.00
2019-05-06T12:55:36.659Z,25408.00
2019-05-06T12:56:36.651Z,20032.00
2019-05-06T12:57:36.658Z,22176.00
2019-05-06T12:58:36.652Z,24320.00
2019-05-06T12:59:36.660Z,66656.00
2019-05-06T13:00:36.692Z,71552.00
2019-05-06T13:01:36.647Z,30528.00
2019-05-06T13:02:36.660Z,94368.00
2019-05-06T13:03:36.638Z,26272.00
2019-05-06T13:04:54.600Z,17248.00
2019-05-06T13:05:36.640Z,14832.00
2019-05-06T13:06:36.629Z,13780.00
2019-05-06T13:07:36.634Z,16576.00
2019-05-06T13:08:53.823Z,67392.00
2019-05-06T13:09:36.622Z,23552.00
2019-05-06T13:10:36.623Z,19040.00
2019-05-06T13:11:36.625Z,16276.00
2019-05-06T13:12:36.621Z,13472.00
2019-05-06T13:13:36.638Z,11604.00
2019-05-06T13:14:36.616Z,11368.00
2019-05-06T13:15:36.615Z,12368.00
2019-05-06T13:16:36.619Z,14844.00
2019-05-06T13:17:36.604Z,20192.00
2019-05-06T13:18:36.604Z,23072.00
2019-05-06T13:19:36.605Z,28448.00
2019-05-06T13:20:36.606Z,25312.00
2019-05-06T13:21:36.592Z,19584.00
2019-05-06T13:22:36.594Z,17568.00
2019-05-06T13:23:36.594Z,16896.00
2019-05-06T13:24:36.589Z,16768.00
2019-05-06T13:25:36.599Z,16576.00
2019-05-06T13:26:36.594Z,18464.00
2019-05-06T13:27:36.578Z,20960.00
2019-05-06T13:28:36.573Z,19680.00
2019-05-06T13:29:36.587Z,18432.00
2019-05-06T13:30:36.575Z,18240.00
2019-05-06T13:31:36.568Z,17472.00
2019-05-06T13:32:36.561Z,15152.00
2019-05-06T13:33:36.643Z,13952.00
2019-05-06T13:34:36.566Z,12712.00
2019-05-06T13:35:36.551Z,11360.00
2019-05-06T13:36:36.548Z,10204.00
2019-05-06T13:37:36.546Z,9244.00
2019-05-06T13:38:36.534Z,8512.00
2019-05-06T13:39:36.606Z,8080.00
2019-05-06T13:40:51.276Z,8560.00
2019-05-06T13:41:36.534Z,11216.00
2019-05-06T13:42:36.536Z,37312.00
2019-05-06T13:43:36.517Z,82144.00
2019-05-06T13:44:36.511Z,43168.00
2019-05-06T13:45:36.515Z,20416.00
2019-05-06T13:46:36.510Z,14524.00
2019-05-06T13:47:36.501Z,13116.00
2019-05-06T13:48:36.516Z,11472.00
2019-05-06T13:49:36.495Z,9912.00
2019-05-06T13:50:38.403Z,9056.00
2019-05-06T13:51:36.486Z,12048.00
2019-05-06T13:52:36.489Z,49824.00
2019-05-06T13:53:39.699Z,13088.00
2019-05-06T13:54:36.508Z,12072.00
2019-05-06T13:55:36.478Z,10008.00
2019-05-06T13:56:36.469Z,8724.00
2019-05-06T13:57:39.221Z,7528.00
2019-05-06T13:58:36.462Z,7008.00
2019-05-06T13:59:37.169Z,7240.00
2019-05-06T14:00:36.442Z,7264.00
2019-05-06T14:01:36.447Z,7056.00
2019-05-06T14:02:36.457Z,6528.00
2019-05-06T14:03:36.436Z,5988.00
2019-05-06T14:04:36.428Z,6064.00
2019-05-06T14:05:36.425Z,6816.00
2019-05-06T14:06:36.426Z,8088.00
2019-05-06T14:07:36.411Z,18848.00
2019-05-06T14:08:36.417Z,17088.00
2019-05-06T14:09:40.267Z,33408.00
2019-05-06T14:10:36.398Z,23008.00
2019-05-06T14:11:36.394Z,22368.00
2019-05-06T14:12:36.392Z,32000.00
2019-05-06T14:13:36.386Z,20960.00
2019-05-06T14:14:36.378Z,17600.00
2019-05-06T14:15:36.372Z,14544.00
2019-05-06T14:16:36.369Z,12496.00
2019-05-06T14:17:36.366Z,11380.00
2019-05-06T14:18:37.800Z,10512.00
2019-05-06T14:19:36.359Z,9516.00
2019-05-06T14:20:36.375Z,8700.00
2019-05-06T14:21:36.347Z,7860.00
2019-05-06T14:22:36.369Z,7344.00
2019-05-06T14:23:36.338Z,7576.00
2019-05-06T14:24:36.334Z,8368.00
2019-05-06T14:25:36.327Z,9300.00
2019-05-06T14:26:36.318Z,9960.00
2019-05-06T14:27:36.319Z,10864.00
2019-05-06T14:28:36.337Z,11684.00
2019-05-06T14:29:36.309Z,11808.00
2019-05-06T14:30:36.301Z,11468.00
2019-05-06T14:31:36.296Z,11072.00
2019-05-06T14:32:36.303Z,12000.00
2019-05-06T14:33:36.290Z,13500.00
2019-05-06T14:34:36.281Z,14980.00
2019-05-06T14:35:36.292Z,15580.00
2019-05-06T14:36:36.265Z,16292.00
2019-05-06T14:37:36.267Z,16004.00
2019-05-06T14:38:36.264Z,15328.00
2019-05-06T14:39:52.174Z,14440.00
2019-05-06T14:40:36.251Z,14000.00
2019-05-06T14:41:36.245Z,14776.00
2019-05-06T14:42:36.250Z,14672.00
2019-05-06T14:43:36.240Z,14720.00
2019-05-06T14:44:36.247Z,13884.00
2019-05-06T14:45:36.236Z,12952.00
2019-05-06T14:46:36.213Z,12072.00
2019-05-06T14:47:36.247Z,11452.00
2019-05-06T14:48:36.210Z,10368.00
2019-05-06T14:49:36.203Z,9248.00
2019-05-06T14:50:45.247Z,8512.00
2019-05-06T14:51:36.249Z,8072.00
2019-05-06T14:52:36.184Z,7752.00
2019-05-06T14:53:36.296Z,7564.00
2019-05-06T14:57:59.480Z,9728.00
2019-05-06T14:58:42.829Z,9964.00
2019-05-06T15:00:37.514Z,9892.00
2019-05-06T15:01:37.359Z,9936.00
2019-05-06T15:03:42.939Z,9732.00
2019-05-06T15:04:32.506Z,9720.00
2019-05-06T15:06:24.649Z,10508.00
2019-05-06T15:07:24.866Z,10672.00
2019-05-06T15:10:50.829Z,10652.00
2019-05-06T15:11:50.811Z,10648.00
2019-05-06T15:13:58.034Z,10168.00
2019-05-06T15:14:44.310Z,9608.00
2019-05-06T15:16:46.695Z,8892.00
2019-05-06T15:17:37.899Z,8576.00
2019-05-06T15:19:33.514Z,7944.00
2019-05-06T15:20:34.103Z,7560.00
2019-05-06T15:22:38.470Z,6624.00
2019-05-06T15:23:25.099Z,6304.00
2019-05-06T15:26:58.454Z,6576.00
2019-05-06T15:27:53.135Z,6904.00
2019-05-06T15:29:48.748Z,7120.00
2019-05-06T15:30:46.321Z,7384.00
2019-05-06T15:34:26.534Z,6728.00
2019-05-06T15:35:12.812Z,6448.00
2019-05-06T15:37:05.617Z,5984.00
2019-05-06T15:38:05.572Z,5844.00
2019-05-06T15:39:06.076Z,5656.00
2019-05-06T15:40:05.560Z,5536.00
2019-05-06T15:41:05.560Z,5456.00
2019-05-06T15:42:05.549Z,5248.00
2019-05-06T15:43:05.542Z,5000.00